sensor_id;sensor_type;location;lat;lon;timestamp;pressure;altitude;pressure_sealevel;temperature;humidity
49311;BME280;35177;45.900;5.946;2022-09-27T00:00:58;96588.81;;;9.43;100.00
49311;BME280;35177;45.900;5.946;2022-09-27T00:03:24;96591.88;;;9.41;100.00
49311;BME280;35177;45.900;5.946;2022-09-27T00:06:11;96592.56;;;9.38;100.00
49311;BME280;35177;45.900;5.946;2022-09-27T00:08:37;96587.81;;;9.39;100.00
49311;BME280;35177;45.900;5.946;2022-09-27T00:11:06;96583.63;;;9.32;100.00
49311;BME280;35177;45.900;5.946;2022-09-27T00:13:32;96589.81;;;9.38;100.00
49311;BME280;35177;45.900;5.946;2022-09-27T00:15:58;96581.84;;;9.37;100.00
49311;BME280;35177;45.900;5.946;2022-09-27T00:18:25;96573.66;;;9.40;100.00
49311;BME280;35177;45.900;5.946;2022-09-27T00:20:51;96570.06;;;9.40;100.00
49311;BME280;35177;45.900;5.946;2022-09-27T00:23:16;96560.56;;;9.49;100.00
49311;BME280;35177;45.900;5.946;2022-09-27T00:25:42;96562.41;;;9.45;100.00
49311;BME280;35177;45.900;5.946;2022-09-27T00:28:08;96568.94;;;9.41;100.00
49311;BME280;35177;45.900;5.946;2022-09-27T00:30:33;96571.69;;;9.41;100.00
49311;BME280;35177;45.900;5.946;2022-09-27T00:32:59;96565.97;;;9.46;100.00
49311;BME280;35177;45.900;5.946;2022-09-27T00:35:24;96565.63;;;9.47;100.00
49311;BME280;35177;45.900;5.946;2022-09-27T00:37:50;96559.28;;;9.47;100.00
49311;BME280;35177;45.900;5.946;2022-09-27T00:40:15;96574.47;;;9.41;100.00
49311;BME280;35177;45.900;5.946;2022-09-27T00:42:41;96567.25;;;9.48;100.00
49311;BME280;35177;45.900;5.946;2022-09-27T00:45:15;96571.47;;;9.55;100.00
49311;BME280;35177;45.900;5.946;2022-09-27T00:50:23;96573.91;;;9.56;100.00
49311;BME280;35177;45.900;5.946;2022-09-27T00:53:32;96575.81;;;9.64;100.00
49311;BME280;35177;45.900;5.946;2022-09-27T00:55:59;96570.09;;;9.70;100.00
49311;BME280;35177;45.900;5.946;2022-09-27T00:58:32;96577.81;;;9.55;100.00
49311;BME280;35177;45.900;5.946;2022-09-27T01:01:02;96574.72;;;9.57;100.00
49311;BME280;35177;45.900;5.946;2022-09-27T01:03:38;96568.53;;;9.51;100.00
49311;BME280;35177;45.900;5.946;2022-09-27T01:06:06;96576.16;;;9.63;100.00
49311;BME280;35177;45.900;5.946;2022-09-27T01:08:33;96582.16;;;9.65;100.00
49311;BME280;35177;45.900;5.946;2022-09-27T01:11:17;96584.03;;;9.52;100.00
49311;BME280;35177;45.900;5.946;2022-09-27T01:19:26;96570.25;;;9.35;100.00
49311;BME280;35177;45.900;5.946;2022-09-27T01:22:03;96571.25;;;9.30;100.00
49311;BME280;35177;45.900;5.946;2022-09-27T01:32:54;96514.09;;;9.25;100.00
49311;BME280;35177;45.900;5.946;2022-09-27T01:35:39;96520.00;;;9.24;100.00
49311;BME280;35177;45.900;5.946;2022-09-27T01:41:12;96560.00;;;9.35;100.00
49311;BME280;35177;45.900;5.946;2022-09-27T01:43:59;96567.44;;;9.43;100.00
49311;BME280;35177;45.900;5.946;2022-09-27T01:46:34;96565.25;;;9.58;100.00
49311;BME280;35177;45.900;5.946;2022-09-27T01:49:08;96558.03;;;9.65;100.00
49311;BME280;35177;45.900;5.946;2022-09-27T01:51:49;96559.13;;;9.73;100.00
49311;BME280;35177;45.900;5.946;2022-09-27T01:54:23;96561.78;;;9.70;100.00
49311;BME280;35177;45.900;5.946;2022-09-27T01:56:54;96561.50;;;9.62;100.00
49311;BME280;35177;45.900;5.946;2022-09-27T02:01:55;96560.47;;;9.67;100.00
49311;BME280;35177;45.900;5.946;2022-09-27T02:04:27;96548.59;;;9.67;100.00
49311;BME280;35177;45.900;5.946;2022-09-27T02:07:00;96544.88;;;9.84;100.00
49311;BME280;35177;45.900;5.946;2022-09-27T02:09:32;96547.88;;;9.78;100.00
49311;BME280;35177;45.900;5.946;2022-09-27T02:12:07;96551.44;;;9.79;100.00
49311;BME280;35177;45.900;5.946;2022-09-27T02:14:41;96548.88;;;9.74;100.00
49311;BME280;35177;45.900;5.946;2022-09-27T02:20:28;96555.84;;;9.80;100.00
49311;BME280;35177;45.900;5.946;2022-09-27T02:27:39;96562.66;;;9.83;100.00
49311;BME280;35177;45.900;5.946;2022-09-27T02:30:11;96566.13;;;9.79;100.00
49311;BME280;35177;45.900;5.946;2022-09-27T02:32:38;96567.31;;;9.70;100.00
49311;BME280;35177;45.900;5.946;2022-09-27T02:35:33;96566.63;;;9.73;100.00
49311;BME280;35177;45.900;5.946;2022-09-27T02:38:00;96563.88;;;9.73;100.00
49311;BME280;35177;45.900;5.946;2022-09-27T02:40:31;96557.19;;;9.74;100.00
49311;BME280;35177;45.900;5.946;2022-09-27T02:42:58;96559.59;;;9.75;100.00
49311;BME280;35177;45.900;5.946;2022-09-27T02:45:29;96566.63;;;9.73;100.00
49311;BME280;35177;45.900;5.946;2022-09-27T02:48:15;96570.97;;;9.83;100.00
49311;BME280;35177;45.900;5.946;2022-09-27T02:53:56;96564.50;;;9.78;100.00
49311;BME280;35177;45.900;5.946;2022-09-27T02:56:34;96565.16;;;9.75;100.00
49311;BME280;35177;45.900;5.946;2022-09-27T02:59:25;96563.22;;;9.76;100.00
49311;BME280;35177;45.900;5.946;2022-09-27T03:02:10;96560.75;;;9.74;100.00
49311;BME280;35177;45.900;5.946;2022-09-27T03:04:46;96563.66;;;9.78;100.00
49311;BME280;35177;45.900;5.946;2022-09-27T03:07:13;96569.53;;;9.76;100.00
49311;BME280;35177;45.900;5.946;2022-09-27T03:09:47;96562.25;;;9.72;100.00
49311;BME280;35177;45.900;5.946;2022-09-27T03:12:14;96554.41;;;9.74;100.00
49311;BME280;35177;45.900;5.946;2022-09-27T03:14:47;96550.56;;;9.66;100.00
49311;BME280;35177;45.900;5.946;2022-09-27T03:17:13;96555.63;;;9.64;100.00
49311;BME280;35177;45.900;5.946;2022-09-27T03:19:39;96556.25;;;9.70;100.00
49311;BME280;35177;45.900;5.946;2022-09-27T03:22:05;96553.59;;;9.73;100.00
49311;BME280;35177;45.900;5.946;2022-09-27T03:24:30;96569.59;;;9.68;100.00
49311;BME280;35177;45.900;5.946;2022-09-27T03:26:56;96564.41;;;9.66;100.00
49311;BME280;35177;45.900;5.946;2022-09-27T03:29:21;96568.19;;;9.61;100.00
49311;BME280;35177;45.900;5.946;2022-09-27T03:31:47;96574.06;;;9.60;100.00
49311;BME280;35177;45.900;5.946;2022-09-27T03:34:12;96573.03;;;9.64;100.00
49311;BME280;35177;45.900;5.946;2022-09-27T03:36:38;96574.16;;;9.63;100.00
49311;BME280;35177;45.900;5.946;2022-09-27T03:39:03;96581.97;;;9.70;100.00
49311;BME280;35177;45.900;5.946;2022-09-27T03:41:29;96579.28;;;9.83;100.00
49311;BME280;35177;45.900;5.946;2022-09-27T03:43:54;96580.63;;;9.76;100.00
49311;BME280;35177;45.900;5.946;2022-09-27T03:46:24;96577.19;;;9.79;100.00
49311;BME280;35177;45.900;5.946;2022-09-27T03:48:50;96576.53;;;9.83;100.00
49311;BME280;35177;45.900;5.946;2022-09-27T03:51:16;96588.88;;;9.85;100.00
49311;BME280;35177;45.900;5.946;2022-09-27T03:53:41;96597.69;;;9.87;100.00
49311;BME280;35177;45.900;5.946;2022-09-27T03:56:07;96602.59;;;9.81;100.00
49311;BME280;35177;45.900;5.946;2022-09-27T03:58:33;96609.00;;;9.73;100.00
49311;BME280;35177;45.900;5.946;2022-09-27T04:00:59;96612.31;;;9.67;100.00
49311;BME280;35177;45.900;5.946;2022-09-27T04:03:24;96616.56;;;9.64;100.00
49311;BME280;35177;45.900;5.946;2022-09-27T04:05:52;96618.19;;;9.65;100.00
49311;BME280;35177;45.900;5.946;2022-09-27T04:08:18;96616.22;;;9.65;100.00
49311;BME280;35177;45.900;5.946;2022-09-27T04:10:43;96610.19;;;9.63;100.00
49311;BME280;35177;45.900;5.946;2022-09-27T04:13:09;96616.22;;;9.65;100.00
49311;BME280;35177;45.900;5.946;2022-09-27T04:15:35;96621.28;;;9.63;100.00
49311;BME280;35177;45.900;5.946;2022-09-27T04:18:01;96621.28;;;9.63;100.00
49311;BME280;35177;45.900;5.946;2022-09-27T04:20:27;96627.78;;;9.68;100.00
49311;BME280;35177;45.900;5.946;2022-09-27T04:22:52;96626.66;;;9.69;100.00
49311;BME280;35177;45.900;5.946;2022-09-27T04:25:18;96631.22;;;9.64;100.00
49311;BME280;35177;45.900;5.946;2022-09-27T04:27:44;96621.28;;;9.63;100.00
49311;BME280;35177;45.900;5.946;2022-09-27T04:30:10;96618.41;;;9.51;100.00
49311;BME280;35177;45.900;5.946;2022-09-27T04:32:43;96621.16;;;9.60;100.00
49311;BME280;35177;45.900;5.946;2022-09-27T04:35:10;96621.00;;;9.56;100.00
49311;BME280;35177;45.900;5.946;2022-09-27T04:37:54;96618.25;;;9.47;100.00
49311;BME280;35177;45.900;5.946;2022-09-27T04:40:20;96620.72;;;9.49;100.00
49311;BME280;35177;45.900;5.946;2022-09-27T04:42:47;96627.19;;;9.53;100.00
49311;BME280;35177;45.900;5.946;2022-09-27T04:45:13;96631.78;;;9.49;100.00
49311;BME280;35177;45.900;5.946;2022-09-27T04:47:46;96626.13;;;9.37;100.00
49311;BME280;35177;45.900;5.946;2022-09-27T04:50:12;96632.31;;;9.33;100.00
49311;BME280;35177;45.900;5.946;2022-09-27T04:52:38;96638.06;;;9.20;100.00
49311;BME280;35177;45.900;5.946;2022-09-27T04:55:06;96642.66;;;9.07;100.00
49311;BME280;35177;45.900;5.946;2022-09-27T04:57:32;96634.69;;;9.05;100.00
49311;BME280;35177;45.900;5.946;2022-09-27T04:59:57;96636.78;;;9.17;100.00
49311;BME280;35177;45.900;5.946;2022-09-27T05:02:25;96639.72;;;9.21;100.00
49311;BME280;35177;45.900;5.946;2022-09-27T05:04:52;96641.50;;;9.16;100.00
49311;BME280;35177;45.900;5.946;2022-09-27T05:07:17;96640.63;;;9.33;100.00
49311;BME280;35177;45.900;5.946;2022-09-27T05:09:43;96645.84;;;9.26;100.00
49311;BME280;35177;45.900;5.946;2022-09-27T05:12:09;96645.41;;;9.24;100.00
49311;BME280;35177;45.900;5.946;2022-09-27T05:14:38;96649.78;;;9.16;100.00
49311;BME280;35177;45.900;5.946;2022-09-27T05:17:04;96648.66;;;9.18;100.00
49311;BME280;35177;45.900;5.946;2022-09-27T05:19:32;96643.09;;;9.26;100.00
49311;BME280;35177;45.900;5.946;2022-09-27T05:21:57;96653.97;;;9.31;100.00
49311;BME280;35177;45.900;5.946;2022-09-27T05:24:23;96656.75;;;9.31;100.00
49311;BME280;35177;45.900;5.946;2022-09-27T05:26:49;96655.91;;;9.40;100.00
49311;BME280;35177;45.900;5.946;2022-09-27T05:29:15;96655.28;;;9.43;100.00
49311;BME280;35177;45.900;5.946;2022-09-27T05:31:42;96656.22;;;9.47;100.00
49311;BME280;35177;45.900;5.946;2022-09-27T05:34:07;96657.84;;;9.48;100.00
49311;BME280;35177;45.900;5.946;2022-09-27T05:36:35;96662.25;;;9.49;100.00
49311;BME280;35177;45.900;5.946;2022-09-27T05:39:01;96664.38;;;9.43;100.00
49311;BME280;35177;45.900;5.946;2022-09-27T05:41:27;96673.19;;;9.45;100.00
49311;BME280;35177;45.900;5.946;2022-09-27T05:43:52;96676.75;;;9.46;100.00
49311;BME280;35177;45.900;5.946;2022-09-27T05:46:18;96674.28;;;9.53;100.00
49311;BME280;35177;45.900;5.946;2022-09-27T05:48:43;96673.13;;;9.54;100.00
49311;BME280;35177;45.900;5.946;2022-09-27T05:51:09;96665.59;;;9.63;100.00
49311;BME280;35177;45.900;5.946;2022-09-27T05:53:35;96676.38;;;9.65;100.00
49311;BME280;35177;45.900;5.946;2022-09-27T05:56:02;96679.28;;;9.69;100.00
49311;BME280;35177;45.900;5.946;2022-09-27T05:58:28;96670.97;;;9.69;100.00
49311;BME280;35177;45.900;5.946;2022-09-27T06:00:54;96669.84;;;9.70;100.00
49311;BME280;35177;45.900;5.946;2022-09-27T06:03:19;96670.63;;;9.70;100.00
49311;BME280;35177;45.900;5.946;2022-09-27T06:05:45;96684.28;;;9.75;100.00
49311;BME280;35177;45.900;5.946;2022-09-27T06:08:12;96686.56;;;9.73;100.00
49311;BME280;35177;45.900;5.946;2022-09-27T06:10:38;96680.91;;;9.70;100.00
49311;BME280;35177;45.900;5.946;2022-09-27T06:13:07;96675.88;;;9.63;100.00
49311;BME280;35177;45.900;5.946;2022-09-27T06:15:34;96675.22;;;9.66;100.00
49311;BME280;35177;45.900;5.946;2022-09-27T06:18:06;96679.44;;;9.63;100.00
49311;BME280;35177;45.900;5.946;2022-09-27T06:20:32;96679.94;;;9.65;100.00
49311;BME280;35177;45.900;5.946;2022-09-27T06:23:08;96680.50;;;9.50;100.00
49311;BME280;35177;45.900;5.946;2022-09-27T06:25:37;96685.41;;;9.44;100.00
49311;BME280;35177;45.900;5.946;2022-09-27T06:28:03;96684.38;;;9.58;100.00
49311;BME280;35177;45.900;5.946;2022-09-27T06:30:29;96689.28;;;9.52;100.00
49311;BME280;35177;45.900;5.946;2022-09-27T06:32:59;96683.22;;;9.59;100.00
49311;BME280;35177;45.900;5.946;2022-09-27T06:35:28;96685.31;;;9.62;100.00
49311;BME280;35177;45.900;5.946;2022-09-27T06:37:55;96686.66;;;9.56;100.00
49311;BME280;35177;45.900;5.946;2022-09-27T06:40:22;96682.59;;;9.53;100.00
49311;BME280;35177;45.900;5.946;2022-09-27T06:42:51;96683.38;;;9.62;100.00
49311;BME280;35177;45.900;5.946;2022-09-27T06:45:23;96686.47;;;9.70;100.00
49311;BME280;35177;45.900;5.946;2022-09-27T06:47:48;96690.19;;;9.74;100.00
49311;BME280;35177;45.900;5.946;2022-09-27T06:50:14;96694.88;;;9.82;100.00
49311;BME280;35177;45.900;5.946;2022-09-27T06:52:46;96699.00;;;10.06;100.00
49311;BME280;35177;45.900;5.946;2022-09-27T06:55:12;96698.50;;;10.34;100.00
49311;BME280;35177;45.900;5.946;2022-09-27T06:57:38;96693.72;;;10.43;100.00
49311;BME280;35177;45.900;5.946;2022-09-27T07:00:22;96703.63;;;10.53;100.00
49311;BME280;35177;45.900;5.946;2022-09-27T07:02:47;96701.97;;;10.52;100.00
49311;BME280;35177;45.900;5.946;2022-09-27T07:05:15;96707.22;;;10.53;100.00
49311;BME280;35177;45.900;5.946;2022-09-27T07:07:40;96702.53;;;10.45;100.00
49311;BME280;35177;45.900;5.946;2022-09-27T07:10:08;96695.56;;;10.39;100.00
49311;BME280;35177;45.900;5.946;2022-09-27T07:12:35;96701.94;;;10.31;100.00
49311;BME280;35177;45.900;5.946;2022-09-27T07:15:02;96711.09;;;10.31;100.00
49311;BME280;35177;45.900;5.946;2022-09-27T07:17:28;96710.31;;;10.22;100.00
49311;BME280;35177;45.900;5.946;2022-09-27T07:19:54;96706.25;;;10.19;100.00
49311;BME280;35177;45.900;5.946;2022-09-27T07:22:20;96705.28;;;10.15;100.00
49311;BME280;35177;45.900;5.946;2022-09-27T07:24:45;96711.81;;;10.19;100.00
49311;BME280;35177;45.900;5.946;2022-09-27T07:27:11;96709.69;;;10.16;100.00
49311;BME280;35177;45.900;5.946;2022-09-27T07:29:36;96711.81;;;10.19;100.00
49311;BME280;35177;45.900;5.946;2022-09-27T07:32:02;96707.69;;;10.25;100.00
49311;BME280;35177;45.900;5.946;2022-09-27T07:34:28;96709.84;;;10.20;100.00
49311;BME280;35177;45.900;5.946;2022-09-27T07:36:58;96709.91;;;10.32;100.00
49311;BME280;35177;45.900;5.946;2022-09-27T07:39:23;96716.16;;;10.29;100.00
49311;BME280;35177;45.900;5.946;2022-09-27T07:41:49;96714.56;;;10.49;100.00
49311;BME280;35177;45.900;5.946;2022-09-27T07:44:14;96711.59;;;10.54;100.00
49311;BME280;35177;45.900;5.946;2022-09-27T07:46:40;96717.84;;;10.51;100.00
49311;BME280;35177;45.900;5.946;2022-09-27T07:49:06;96711.66;;;10.67;100.00
49311;BME280;35177;45.900;5.946;2022-09-27T07:51:32;96712.22;;;10.60;100.00
49311;BME280;35177;45.900;5.946;2022-09-27T07:53:58;96713.84;;;10.82;100.00
49311;BME280;35177;45.900;5.946;2022-09-27T07:56:26;96709.50;;;10.93;100.00
49311;BME280;35177;45.900;5.946;2022-09-27T07:58:51;96712.00;;;11.07;100.00
49311;BME280;35177;45.900;5.946;2022-09-27T08:01:17;96717.50;;;11.29;100.00
49311;BME280;35177;45.900;5.946;2022-09-27T08:03:42;96712.50;;;11.22;100.00
49311;BME280;35177;45.900;5.946;2022-09-27T08:06:09;96723.91;;;11.41;100.00
49311;BME280;35177;45.900;5.946;2022-09-27T08:08:35;96723.22;;;11.45;100.00
49311;BME280;35177;45.900;5.946;2022-09-27T08:11:00;96725.00;;;11.49;100.00
49311;BME280;35177;45.900;5.946;2022-09-27T08:13:26;96725.56;;;11.55;100.00
49311;BME280;35177;45.900;5.946;2022-09-27T08:15:51;96725.56;;;11.55;100.00
49311;BME280;35177;45.900;5.946;2022-09-27T08:18:17;96721.06;;;11.50;100.00
49311;BME280;35177;45.900;5.946;2022-09-27T08:20:43;96722.88;;;11.46;100.00
49311;BME280;35177;45.900;5.946;2022-09-27T08:23:08;96726.91;;;11.36;100.00
49311;BME280;35177;45.900;5.946;2022-09-27T08:25:34;96727.94;;;11.32;100.00
49311;BME280;35177;45.900;5.946;2022-09-27T08:28:01;96726.81;;;11.12;100.00
49311;BME280;35177;45.900;5.946;2022-09-27T08:30:29;96722.31;;;11.19;100.00
49311;BME280;35177;45.900;5.946;2022-09-27T08:33:00;96728.94;;;11.15;100.00
49311;BME280;35177;45.900;5.946;2022-09-27T08:35:28;96727.56;;;11.21;100.00
49311;BME280;35177;45.900;5.946;2022-09-27T08:37:55;96738.09;;;11.28;100.00
49311;BME280;35177;45.900;5.946;2022-09-27T08:40:22;96732.63;;;11.19;100.00
49311;BME280;35177;45.900;5.946;2022-09-27T08:43:04;96737.59;;;11.13;100.00
49311;BME280;35177;45.900;5.946;2022-09-27T08:45:45;96737.25;;;11.15;100.00
49311;BME280;35177;45.900;5.946;2022-09-27T08:48:17;96735.91;;;11.00;100.00
49311;BME280;35177;45.900;5.946;2022-09-27T08:50:44;96738.41;;;11.14;100.00
49311;BME280;35177;45.900;5.946;2022-09-27T08:53:16;96738.19;;;11.19;100.00
49311;BME280;35177;45.900;5.946;2022-09-27T08:55:51;96743.00;;;11.09;100.00
49311;BME280;35177;45.900;5.946;2022-09-27T08:58:25;96741.63;;;11.16;100.00
49311;BME280;35177;45.900;5.946;2022-09-27T09:00:53;96743.66;;;11.61;100.00
49311;BME280;35177;45.900;5.946;2022-09-27T09:03:32;96743.25;;;11.84;100.00
49311;BME280;35177;45.900;5.946;2022-09-27T09:08:32;96734.72;;;12.01;100.00
49311;BME280;35177;45.900;5.946;2022-09-27T09:16:56;96748.50;;;12.47;100.00
49311;BME280;35177;45.900;5.946;2022-09-27T09:19:50;96750.84;;;12.45;100.00
49311;BME280;35177;45.900;5.946;2022-09-27T09:25:22;96752.69;;;12.04;100.00
49311;BME280;35177;45.900;5.946;2022-09-27T09:31:07;96752.75;;;11.95;100.00
49311;BME280;35177;45.900;5.946;2022-09-27T09:38:51;96738.38;;;13.21;100.00
49311;BME280;35177;45.900;5.946;2022-09-27T09:41:27;96746.56;;;14.02;100.00
49311;BME280;35177;45.900;5.946;2022-09-27T09:44:13;96745.69;;;13.54;100.00
49311;BME280;35177;45.900;5.946;2022-09-27T09:46:44;96742.56;;;14.51;100.00
49311;BME280;35177;45.900;5.946;2022-09-27T09:49:28;96742.88;;;14.30;100.00
49311;BME280;35177;45.900;5.946;2022-09-27T09:52:13;96745.72;;;14.50;100.00
49311;BME280;35177;45.900;5.946;2022-09-27T09:55:18;96736.97;;;14.51;100.00
49311;BME280;35177;45.900;5.946;2022-09-27T10:00:17;96744.56;;;14.51;100.00
49311;BME280;35177;45.900;5.946;2022-09-27T10:02:44;96741.66;;;14.63;100.00
49311;BME280;35177;45.900;5.946;2022-09-27T10:05:28;96753.22;;;14.45;100.00
49311;BME280;35177;45.900;5.946;2022-09-27T10:07:57;96751.38;;;13.57;100.00
49311;BME280;35177;45.900;5.946;2022-09-27T10:10:24;96747.13;;;13.35;100.00
49311;BME280;35177;45.900;5.946;2022-09-27T10:12:49;96750.84;;;12.98;100.00
49311;BME280;35177;45.900;5.946;2022-09-27T10:15:20;96765.31;;;13.16;100.00
49311;BME280;35177;45.900;5.946;2022-09-27T10:17:48;96764.16;;;12.52;100.00
49311;BME280;35177;45.900;5.946;2022-09-27T10:20:26;96755.34;;;12.62;100.00
49311;BME280;35177;45.900;5.946;2022-09-27T10:22:57;96767.59;;;12.86;100.00
49311;BME280;35177;45.900;5.946;2022-09-27T10:25:24;96766.09;;;12.89;100.00
49311;BME280;35177;45.900;5.946;2022-09-27T10:27:52;96759.44;;;13.06;100.00
49311;BME280;35177;45.900;5.946;2022-09-27T10:30:31;96754.91;;;13.42;100.00
49311;BME280;35177;45.900;5.946;2022-09-27T10:32:59;96761.84;;;14.24;100.00
49311;BME280;35177;45.900;5.946;2022-09-27T10:35:39;96767.44;;;14.24;100.00
49311;BME280;35177;45.900;5.946;2022-09-27T10:38:20;96767.34;;;13.89;100.00
49311;BME280;35177;45.900;5.946;2022-09-27T10:40:47;96761.28;;;13.71;100.00
49311;BME280;35177;45.900;5.946;2022-09-27T10:43:32;96765.72;;;13.43;100.00
49311;BME280;35177;45.900;5.946;2022-09-27T10:46:04;96764.25;;;13.62;100.00
49311;BME280;35177;45.900;5.946;2022-09-27T10:48:30;96778.31;;;13.81;100.00
49311;BME280;35177;45.900;5.946;2022-09-27T10:51:00;96777.94;;;13.83;100.00
49311;BME280;35177;45.900;5.946;2022-09-27T10:53:26;96772.13;;;14.04;100.00
49311;BME280;35177;45.900;5.946;2022-09-27T10:55:54;96778.66;;;13.80;100.00
49311;BME280;35177;45.900;5.946;2022-09-27T10:58:26;96776.09;;;13.59;100.00
49311;BME280;35177;45.900;5.946;2022-09-27T11:01:07;96765.38;;;14.21;100.00
49311;BME280;35177;45.900;5.946;2022-09-27T11:03:54;96759.19;;;14.80;100.00
49311;BME280;35177;45.900;5.946;2022-09-27T11:08:51;96770.06;;;14.65;100.00
49311;BME280;35177;45.900;5.946;2022-09-27T11:14:04;96769.44;;;14.08;100.00
49311;BME280;35177;45.900;5.946;2022-09-27T11:21:50;96763.81;;;13.76;100.00
49311;BME280;35177;45.900;5.946;2022-09-27T11:35:39;96732.06;;;13.80;100.00
49311;BME280;35177;45.900;5.946;2022-09-27T11:38:20;96739.72;;;13.39;100.00
49311;BME280;35177;45.900;5.946;2022-09-27T11:46:36;96752.63;;;13.60;100.00
49311;BME280;35177;45.900;5.946;2022-09-27T12:01:00;96756.06;;;13.41;100.00
49311;BME280;35177;45.900;5.946;2022-09-27T12:03:35;96757.63;;;13.26;100.00
49311;BME280;35177;45.900;5.946;2022-09-27T12:06:12;96748.25;;;13.18;100.00
49311;BME280;35177;45.900;5.946;2022-09-27T12:08:56;96753.69;;;12.86;100.00
49311;BME280;35177;45.900;5.946;2022-09-27T12:14:33;96766.47;;;13.15;100.00
49311;BME280;35177;45.900;5.946;2022-09-27T12:17:03;96761.38;;;13.05;100.00
49311;BME280;35177;45.900;5.946;2022-09-27T12:19:36;96765.84;;;12.94;100.00
49311;BME280;35177;45.900;5.946;2022-09-27T12:22:05;96764.13;;;12.77;100.00
49311;BME280;35177;45.900;5.946;2022-09-27T12:24:32;96767.75;;;12.77;100.00
49311;BME280;35177;45.900;5.946;2022-09-27T12:27:12;96757.31;;;12.62;100.00
49311;BME280;35177;45.900;5.946;2022-09-27T12:29:41;96774.50;;;12.51;100.00
49311;BME280;35177;45.900;5.946;2022-09-27T12:32:21;96773.34;;;12.52;100.00
49311;BME280;35177;45.900;5.946;2022-09-27T12:35:01;96769.84;;;12.56;100.00
49311;BME280;35177;45.900;5.946;2022-09-27T12:37:34;96763.06;;;12.81;100.00
49311;BME280;35177;45.900;5.946;2022-09-27T12:40:04;96757.97;;;12.83;100.00
49311;BME280;35177;45.900;5.946;2022-09-27T12:42:54;96763.84;;;13.07;100.00
49311;BME280;35177;45.900;5.946;2022-09-27T12:48:20;96768.59;;;13.34;100.00
49311;BME280;35177;45.900;5.946;2022-09-27T12:51:09;96754.00;;;13.38;100.00
49311;BME280;35177;45.900;5.946;2022-09-27T12:53:56;96766.63;;;13.47;100.00
49311;BME280;35177;45.900;5.946;2022-09-27T13:10:28;96754.28;;;13.20;100.00
49311;BME280;35177;45.900;5.946;2022-09-27T13:12:58;96758.75;;;13.37;100.00
49311;BME280;35177;45.900;5.946;2022-09-27T13:15:30;96761.56;;;13.25;100.00
49311;BME280;35177;45.900;5.946;2022-09-27T13:17:57;96764.31;;;12.96;100.00
49311;BME280;35177;45.900;5.946;2022-09-27T13:22:58;96778.66;;;12.45;100.00
49311;BME280;35177;45.900;5.946;2022-09-27T13:25:47;96783.88;;;12.22;100.00
49311;BME280;35177;45.900;5.946;2022-09-27T13:33:33;96792.13;;;11.85;100.00
49311;BME280;35177;45.900;5.946;2022-09-27T13:38:51;96786.75;;;12.01;100.00
49311;BME280;35177;45.900;5.946;2022-09-27T13:41:19;96785.38;;;12.07;100.00
49311;BME280;35177;45.900;5.946;2022-09-27T13:44:13;96790.06;;;11.94;100.00
49311;BME280;35177;45.900;5.946;2022-09-27T13:46:48;96785.00;;;11.96;100.00
49311;BME280;35177;45.900;5.946;2022-09-27T13:49:35;96792.19;;;11.97;100.00
49311;BME280;35177;45.900;5.946;2022-09-27T13:55:05;96773.41;;;12.07;100.00
49311;BME280;35177;45.900;5.946;2022-09-27T13:57:53;96779.09;;;12.10;100.00
49311;BME280;35177;45.900;5.946;2022-09-27T14:00:24;96772.97;;;12.17;100.00
49311;BME280;35177;45.900;5.946;2022-09-27T14:05:26;96772.28;;;12.32;100.00
49311;BME280;35177;45.900;5.946;2022-09-27T14:07:54;96761.84;;;12.42;100.00
49311;BME280;35177;45.900;5.946;2022-09-27T14:10:20;96759.06;;;12.42;100.00
49311;BME280;35177;45.900;5.946;2022-09-27T14:12:49;96762.66;;;12.54;100.00
49311;BME280;35177;45.900;5.946;2022-09-27T14:15:24;96758.59;;;12.52;100.00
49311;BME280;35177;45.900;5.946;2022-09-27T14:17:52;96754.88;;;12.60;100.00
49311;BME280;35177;45.900;5.946;2022-09-27T14:20:37;96751.16;;;12.81;100.00
49311;BME280;35177;45.900;5.946;2022-09-27T14:23:05;96753.44;;;12.91;100.00
49311;BME280;35177;45.900;5.946;2022-09-27T14:25:38;96745.19;;;12.95;100.00
49311;BME280;35177;45.900;5.946;2022-09-27T14:28:28;96745.69;;;12.84;100.00
49311;BME280;35177;45.900;5.946;2022-09-27T14:31:17;96752.34;;;13.08;100.00
49311;BME280;35177;45.900;5.946;2022-09-27T14:33:43;96759.78;;;13.04;100.00
49311;BME280;35177;45.900;5.946;2022-09-27T14:36:32;96751.31;;;13.00;100.00
49311;BME280;35177;45.900;5.946;2022-09-27T14:39:22;96756.56;;;12.90;100.00
49311;BME280;35177;45.900;5.946;2022-09-27T14:41:48;96756.63;;;12.65;100.00
49311;BME280;35177;45.900;5.946;2022-09-27T14:44:18;96757.53;;;12.69;100.00
49311;BME280;35177;45.900;5.946;2022-09-27T14:46:45;96760.53;;;12.76;100.00
49311;BME280;35177;45.900;5.946;2022-09-27T14:49:18;96761.13;;;12.82;100.00
49311;BME280;35177;45.900;5.946;2022-09-27T14:51:50;96758.34;;;12.82;100.00
49311;BME280;35177;45.900;5.946;2022-09-27T14:54:25;96764.47;;;12.88;100.00
49311;BME280;35177;45.900;5.946;2022-09-27T14:56:54;96756.25;;;12.79;100.00
49311;BME280;35177;45.900;5.946;2022-09-27T14:59:27;96753.47;;;12.66;100.00
49311;BME280;35177;45.900;5.946;2022-09-27T15:02:00;96759.19;;;12.45;100.00
49311;BME280;35177;45.900;5.946;2022-09-27T15:04:29;96751.75;;;12.49;100.00
49311;BME280;35177;45.900;5.946;2022-09-27T15:06:56;96758.94;;;12.50;100.00
49311;BME280;35177;45.900;5.946;2022-09-27T15:09:23;96749.19;;;12.57;100.00
49311;BME280;35177;45.900;5.946;2022-09-27T15:11:54;96757.78;;;12.51;100.00
49311;BME280;35177;45.900;5.946;2022-09-27T15:14:21;96753.03;;;12.52;100.00
49311;BME280;35177;45.900;5.946;2022-09-27T15:16:49;96763.22;;;12.60;100.00
49311;BME280;35177;45.900;5.946;2022-09-27T15:21:43;96758.13;;;12.25;100.00
49311;BME280;35177;45.900;5.946;2022-09-27T15:27:24;96763.81;;;12.29;100.00
49311;BME280;35177;45.900;5.946;2022-09-27T15:29:52;96761.97;;;12.45;100.00